createdAt,value
2018-11-21T00:00:17.279Z,-0.38
2018-11-21T00:02:45.295Z,-0.41
2018-11-21T00:05:13.783Z,-0.42
2018-11-21T00:07:42.310Z,-0.33
2018-11-21T00:10:11.640Z,-0.33
2018-11-21T00:12:40.650Z,-0.24
2018-11-21T00:15:10.157Z,-0.30
2018-11-21T00:17:38.511Z,-0.51
2018-11-21T00:20:08.173Z,-0.52
2018-11-21T00:22:35.891Z,-0.63
2018-11-21T00:25:04.090Z,-0.53
2018-11-21T00:27:31.554Z,-0.66
2018-11-21T00:29:59.985Z,-0.49
2018-11-21T00:32:28.306Z,-0.52
2018-11-21T00:34:56.480Z,-0.54
2018-11-21T00:37:24.556Z,-0.62
2018-11-21T00:39:53.734Z,-0.77
2018-11-21T00:42:21.729Z,-0.69
2018-11-21T00:44:49.800Z,-0.68
2018-11-21T00:47:18.417Z,-0.72
2018-11-21T00:49:46.127Z,-0.83
2018-11-21T00:52:14.266Z,-0.81
2018-11-21T00:54:42.944Z,-0.89
2018-11-21T00:57:11.426Z,-1.01
2018-11-21T00:59:39.501Z,-1.10
2018-11-21T01:02:08.093Z,-0.91
2018-11-21T01:04:36.418Z,-0.85
2018-11-21T01:07:04.587Z,-0.90
2018-11-21T01:09:33.044Z,-1.03
2018-11-21T01:12:01.637Z,-1.13
2018-11-21T01:14:29.893Z,-0.93
2018-11-21T01:16:58.498Z,-0.81
2018-11-21T01:19:26.265Z,-0.69
2018-11-21T01:21:54.760Z,-0.76
2018-11-21T01:24:22.520Z,-0.77
2018-11-21T01:26:50.934Z,-0.71
2018-11-21T01:29:19.094Z,-0.66
2018-11-21T01:31:47.293Z,-0.72
2018-11-21T01:34:15.867Z,-0.72
2018-11-21T01:36:44.460Z,-0.85
2018-11-21T01:39:12.528Z,-0.86
2018-11-21T01:41:40.257Z,-0.87
2018-11-21T01:44:09.102Z,-0.86
2018-11-21T01:46:37.687Z,-0.96
2018-11-21T01:49:05.874Z,-1.01
2018-11-21T01:51:34.044Z,-0.96
2018-11-21T01:54:02.227Z,-1.02
2018-11-21T01:56:30.309Z,-1.05
2018-11-21T01:58:58.389Z,-1.13
2018-11-21T02:01:26.870Z,-1.06
2018-11-21T02:03:55.457Z,-1.24
2018-11-21T02:06:23.518Z,-1.30
2018-11-21T02:08:50.919Z,-1.35
2018-11-21T02:11:19.457Z,-1.10
2018-11-21T02:13:47.561Z,-1.12
2018-11-21T02:16:15.232Z,-1.12
2018-11-21T02:18:43.409Z,-1.23
2018-11-21T02:21:11.489Z,-1.26
2018-11-21T02:23:40.057Z,-1.36
2018-11-21T02:26:08.665Z,-1.43
2018-11-21T02:28:37.043Z,-1.51
2018-11-21T02:31:05.231Z,-1.54
2018-11-21T02:33:32.889Z,-1.59
2018-11-21T02:36:00.966Z,-1.72
2018-11-21T02:38:29.049Z,-1.60
2018-11-21T02:40:57.217Z,-1.66
2018-11-21T02:43:25.723Z,-1.55
2018-11-21T02:45:54.244Z,-1.50
2018-11-21T02:48:22.373Z,-1.59
2018-11-21T02:50:50.049Z,-1.58
2018-11-21T02:53:18.127Z,-1.70
2018-11-21T02:55:45.863Z,-1.46
2018-11-21T02:58:14.270Z,-1.58
2018-11-21T03:00:42.497Z,-1.57
2018-11-21T03:03:11.032Z,-1.58
2018-11-21T03:05:39.262Z,-1.63
2018-11-21T03:08:07.668Z,-1.74
2018-11-21T03:10:36.111Z,-1.91
2018-11-21T03:13:05.015Z,-1.90
2018-11-21T03:15:33.084Z,-2.04
2018-11-21T03:18:01.771Z,-2.04
2018-11-21T03:20:30.244Z,-2.04
2018-11-21T03:22:58.420Z,-2.07
2018-11-21T03:25:26.527Z,-2.05
2018-11-21T03:27:55.024Z,-1.94
2018-11-21T03:30:23.478Z,-2.05
2018-11-21T03:32:52.069Z,-2.01
2018-11-21T03:35:20.145Z,-1.98
2018-11-21T03:37:48.605Z,-1.97
2018-11-21T03:40:17.116Z,-1.91
2018-11-21T03:42:44.885Z,-1.92
2018-11-21T03:45:13.477Z,-1.76
2018-11-21T03:47:41.552Z,-1.80
2018-11-21T03:50:11.060Z,-1.89
2018-11-21T03:52:39.123Z,-1.91
2018-11-21T03:55:07.841Z,-1.96
2018-11-21T03:57:35.828Z,-1.91
2018-11-21T04:00:04.289Z,-1.82
2018-11-21T04:02:31.970Z,-1.79
2018-11-21T04:05:00.463Z,-1.91
2018-11-21T04:07:28.535Z,-1.86
2018-11-21T04:09:57.025Z,-1.92
2018-11-21T04:12:25.501Z,-1.90
2018-11-21T04:14:53.554Z,-1.79
2018-11-21T04:17:21.718Z,-1.74
2018-11-21T04:19:49.885Z,-1.84
2018-11-21T04:22:17.601Z,-1.86
2018-11-21T04:24:45.584Z,-2.01
2018-11-21T04:27:14.168Z,-2.04
2018-11-21T04:29:41.495Z,-1.77
2018-11-21T04:32:09.628Z,-1.82
2018-11-21T04:34:37.700Z,-1.66
2018-11-21T04:37:05.964Z,-1.62
2018-11-21T04:39:34.048Z,-1.63
2018-11-21T04:42:02.652Z,-1.62
2018-11-21T04:44:31.103Z,-1.71
2018-11-21T04:46:59.209Z,-1.60
2018-11-21T04:49:26.861Z,-1.59
2018-11-21T04:51:54.941Z,-1.55
2018-11-21T04:54:23.419Z,-1.57
2018-11-21T04:56:52.025Z,-1.59
2018-11-21T04:59:20.095Z,-1.65
2018-11-21T05:01:48.276Z,-1.72
2018-11-21T05:04:16.871Z,-1.87
2018-11-21T05:06:45.252Z,-1.96
2018-11-21T05:09:13.333Z,-2.18
2018-11-21T05:11:41.711Z,-2.20
2018-11-21T05:14:10.210Z,-2.31
2018-11-21T05:16:38.496Z,-2.41
2018-11-21T05:19:06.260Z,-2.52
2018-11-21T05:21:34.707Z,-2.62
2018-11-21T05:24:02.916Z,-2.62
2018-11-21T05:26:31.403Z,-2.68
2018-11-21T05:28:59.891Z,-2.73
2018-11-21T05:31:27.570Z,-2.73
2018-11-21T05:33:56.380Z,-2.71
2018-11-21T05:36:24.857Z,-2.67
2018-11-21T05:38:53.026Z,-2.56
2018-11-21T05:41:20.365Z,-2.54
2018-11-21T05:43:48.928Z,-2.53
2018-11-21T05:46:17.057Z,-2.48
2018-11-21T05:48:45.138Z,-2.56
2018-11-21T05:51:13.351Z,-2.50
2018-11-21T05:53:41.581Z,-2.57
2018-11-21T05:56:09.237Z,-2.59
2018-11-21T05:58:37.299Z,-2.63
2018-11-21T06:01:05.818Z,-2.68
2018-11-21T06:03:33.899Z,-2.78
2018-11-21T06:06:02.485Z,-2.76
2018-11-21T06:08:30.559Z,-2.77
2018-11-21T06:10:58.639Z,-2.75
2018-11-21T06:13:27.111Z,-2.82
2018-11-21T06:15:54.799Z,-2.85
2018-11-21T06:18:23.287Z,-2.81
2018-11-21T06:20:50.646Z,-2.79
2018-11-21T06:23:18.414Z,-2.78
2018-11-21T06:25:46.996Z,-2.73
2018-11-21T06:28:15.407Z,-2.73
2018-11-21T06:30:43.951Z,-2.79
2018-11-21T06:33:12.870Z,-2.86
2018-11-21T06:35:40.932Z,-2.96
2018-11-21T06:38:09.536Z,-2.98
2018-11-21T06:40:37.214Z,-3.02
2018-11-21T06:43:05.289Z,-3.02
2018-11-21T06:45:33.864Z,-2.95
2018-11-21T06:48:01.949Z,-2.89
2018-11-21T06:50:29.716Z,-2.83
2018-11-21T06:52:58.190Z,-2.83
2018-11-21T06:55:25.883Z,-2.79
2018-11-21T06:57:54.374Z,-2.88
2018-11-21T07:00:22.807Z,-2.87
2018-11-21T07:02:50.927Z,-2.83
2018-11-21T07:05:18.990Z,-2.73
2018-11-21T07:07:47.182Z,-2.64
2018-11-21T07:10:16.291Z,-2.53
2018-11-21T07:12:44.669Z,-2.42
2018-11-21T07:15:12.850Z,-2.38
2018-11-21T07:17:41.058Z,-2.36
2018-11-21T07:20:11.040Z,-2.32
2018-11-21T07:22:39.651Z,-2.30
2018-11-21T07:25:19.002Z,-2.23
2018-11-21T07:27:46.737Z,-2.13
2018-11-21T07:30:15.449Z,-2.04
2018-11-21T07:32:44.160Z,-2.05
2018-11-21T07:35:17.785Z,-2.06
2018-11-21T07:37:40.602Z,-2.13
2018-11-21T07:40:09.581Z,-2.09
2018-11-21T07:42:38.192Z,-2.16
2018-11-21T07:45:08.506Z,-2.23
2018-11-21T07:47:36.747Z,-2.32
2018-11-21T07:50:06.708Z,-2.39
2018-11-21T07:52:35.195Z,-2.38
2018-11-21T07:55:03.364Z,-2.39
2018-11-21T07:57:33.386Z,-2.42
2018-11-21T08:00:40.813Z,-2.37
2018-11-21T08:03:08.429Z,-2.20
2018-11-21T08:05:44.111Z,-2.06
2018-11-21T08:08:25.100Z,-1.95
2018-11-21T08:11:12.889Z,-1.84
2018-11-21T08:14:00.421Z,-1.59
2018-11-21T08:16:47.982Z,-1.65
2018-11-21T08:19:35.481Z,-1.65
2018-11-21T08:22:22.712Z,-1.68
2018-11-21T08:25:09.918Z,-1.79
2018-11-21T08:27:48.009Z,-1.78
2018-11-21T08:30:16.161Z,-1.81
2018-11-21T08:32:44.651Z,-1.76
2018-11-21T08:35:12.715Z,-1.66
2018-11-21T08:37:41.020Z,-1.65
2018-11-21T08:40:09.482Z,-1.54
2018-11-21T08:42:37.157Z,-1.38
2018-11-21T08:45:06.257Z,-1.10
2018-11-21T08:47:34.752Z,-1.00
2018-11-21T08:50:02.922Z,-0.86
2018-11-21T08:52:31.007Z,-0.83
2018-11-21T08:54:59.191Z,-0.77
2018-11-21T08:57:27.357Z,-0.64
2018-11-21T08:59:55.549Z,-0.46
2018-11-21T09:02:24.107Z,-0.36
2018-11-21T09:04:52.314Z,-0.28
2018-11-21T09:07:20.785Z,-0.30
2018-11-21T09:09:48.569Z,-0.22
2018-11-21T09:12:16.648Z,-0.22
2018-11-21T09:14:44.737Z,-0.05
2018-11-21T09:17:12.758Z,0.14
2018-11-21T09:19:40.967Z,0.19
2018-11-21T09:22:09.651Z,0.17
2018-11-21T09:24:38.480Z,0.30
2018-11-21T09:27:06.856Z,0.37
2018-11-21T09:29:35.040Z,0.28
2018-11-21T09:32:03.196Z,0.13
2018-11-21T09:34:30.970Z,0.11
2018-11-21T09:36:59.062Z,0.17
2018-11-21T09:39:27.137Z,0.10
2018-11-21T09:41:54.803Z,0.16
2018-11-21T09:44:23.285Z,0.25
2018-11-21T09:46:50.984Z,0.35
2018-11-21T09:49:19.241Z,0.52
2018-11-21T09:51:47.735Z,0.64
2018-11-21T09:54:15.942Z,0.72
2018-11-21T09:57:08.145Z,0.89
2018-11-21T09:59:57.603Z,1.02
2018-11-21T10:03:08.226Z,1.07
2018-11-21T10:05:37.457Z,0.92
2018-11-21T10:08:43.146Z,0.77
2018-11-21T10:11:12.528Z,0.82
2018-11-21T10:13:40.702Z,0.90
2018-11-21T10:16:08.747Z,1.10
2018-11-21T10:18:37.247Z,1.38
2018-11-21T10:21:06.394Z,1.48
2018-11-21T10:23:34.993Z,1.52
2018-11-21T10:26:02.702Z,1.56
2018-11-21T10:28:30.775Z,1.55
2018-11-21T10:30:58.572Z,1.56
2018-11-21T10:33:26.342Z,1.69
2018-11-21T10:35:55.000Z,1.77
2018-11-21T10:38:23.081Z,1.77
2018-11-21T10:40:51.278Z,1.80
2018-11-21T10:43:19.726Z,1.82
2018-11-21T10:45:47.796Z,1.55
2018-11-21T10:48:15.996Z,1.37
2018-11-21T10:50:44.482Z,1.31
2018-11-21T10:53:12.658Z,1.33
2018-11-21T10:55:41.176Z,1.31
2018-11-21T10:58:09.341Z,1.34
2018-11-21T11:00:56.891Z,1.38
2018-11-21T11:03:30.261Z,1.26
2018-11-21T11:06:17.819Z,1.39
2018-11-21T11:09:04.960Z,1.65
2018-11-21T11:11:52.133Z,2.00
2018-11-21T11:14:38.977Z,2.06
2018-11-21T11:17:25.861Z,1.93
2018-11-21T11:20:13.073Z,1.74
2018-11-21T11:23:00.678Z,1.65
2018-11-21T11:25:48.330Z,1.69
2018-11-21T11:28:35.547Z,1.68
2018-11-21T11:31:23.157Z,1.48
2018-11-21T11:34:10.765Z,1.33
2018-11-21T11:36:58.012Z,1.45
2018-11-21T11:39:45.192Z,1.57
2018-11-21T11:42:32.852Z,1.61
2018-11-21T11:45:16.216Z,1.55
2018-11-21T11:48:03.780Z,1.65
2018-11-21T11:50:51.423Z,1.76
2018-11-21T11:53:39.082Z,1.79
2018-11-21T11:56:26.221Z,1.78
2018-11-21T11:59:13.890Z,1.72
2018-11-21T12:02:01.566Z,1.68
2018-11-21T12:04:49.139Z,1.71
2018-11-21T12:07:28.639Z,1.69
2018-11-21T12:10:16.165Z,1.50
2018-11-21T12:13:03.284Z,1.35
2018-11-21T12:15:50.222Z,1.33
2018-11-21T12:18:37.828Z,1.22
2018-11-21T12:21:25.235Z,1.23
2018-11-21T12:24:12.174Z,1.19
2018-11-21T12:26:59.391Z,0.98
2018-11-21T12:29:46.856Z,0.91
2018-11-21T12:32:39.187Z,1.20
2018-11-21T12:35:21.485Z,1.32
2018-11-21T12:38:09.120Z,1.18
2018-11-21T12:40:56.311Z,1.00
2018-11-21T12:43:43.791Z,1.06
2018-11-21T12:46:31.401Z,1.21
2018-11-21T12:49:18.921Z,1.36
2018-11-21T12:52:06.120Z,1.44
2018-11-21T12:54:53.730Z,1.29
2018-11-21T12:57:41.521Z,1.13
2018-11-21T13:00:29.200Z,0.89
2018-11-21T13:03:16.812Z,0.78
2018-11-21T13:06:04.053Z,0.67
2018-11-21T13:08:51.242Z,0.62
2018-11-21T13:11:38.721Z,0.60
2018-11-21T13:14:25.877Z,0.57
2018-11-21T13:17:13.431Z,0.62
2018-11-21T13:20:00.972Z,0.54
2018-11-21T13:22:48.125Z,0.56
2018-11-21T13:25:35.320Z,0.75
2018-11-21T13:28:22.706Z,0.82
2018-11-21T13:31:09.448Z,0.81
2018-11-21T13:33:57.016Z,0.76
2018-11-21T13:36:44.195Z,0.90
2018-11-21T13:39:32.946Z,0.88
2018-11-21T13:42:20.456Z,0.70
2018-11-21T13:45:08.101Z,0.68
2018-11-21T13:47:57.077Z,0.74
2018-11-21T13:50:44.243Z,0.66
2018-11-21T13:53:33.912Z,0.54
2018-11-21T13:56:02.114Z,0.56
2018-11-21T13:58:30.238Z,0.55
2018-11-21T14:01:00.868Z,0.48
2018-11-21T14:03:29.475Z,0.43
2018-11-21T14:05:57.259Z,0.45
2018-11-21T14:08:25.818Z,0.35
2018-11-21T14:10:54.326Z,0.32
2018-11-21T14:13:22.075Z,0.25
2018-11-21T14:15:50.692Z,0.28
2018-11-21T14:18:18.345Z,0.17
2018-11-21T14:20:46.838Z,0.17
2018-11-21T14:23:15.279Z,0.17
2018-11-21T14:25:43.522Z,0.14
2018-11-21T14:28:11.999Z,0.03
2018-11-21T14:30:40.567Z,-0.12
2018-11-21T14:33:08.659Z,-0.18
2018-11-21T14:35:37.131Z,-0.19
2018-11-21T14:38:04.904Z,-0.27
2018-11-21T14:40:33.407Z,-0.27
2018-11-21T14:43:01.874Z,-0.33
2018-11-21T14:45:30.380Z,-0.41
2018-11-21T14:47:59.070Z,-0.35
2018-11-21T14:50:29.313Z,-0.36
2018-11-21T14:52:57.797Z,-0.42
2018-11-21T14:55:25.822Z,-0.43
2018-11-21T14:57:54.423Z,-0.47
2018-11-21T15:00:23.152Z,-0.42
2018-11-21T15:02:51.706Z,-0.42
2018-11-21T15:05:20.193Z,-0.42
2018-11-21T15:07:48.374Z,-0.46
2018-11-21T15:10:16.423Z,-0.39
2018-11-21T15:12:46.855Z,-0.35
2018-11-21T15:15:16.603Z,-0.33
2018-11-21T15:17:44.816Z,-0.39
2018-11-21T15:20:32.260Z,-0.53
2018-11-21T15:23:00.389Z,-0.58
2018-11-21T15:25:28.847Z,-0.66
2018-11-21T15:27:58.164Z,-0.71
2018-11-21T15:30:27.292Z,-0.68
2018-11-21T15:32:55.466Z,-0.68
2018-11-21T15:35:24.047Z,-0.69
2018-11-21T15:37:52.337Z,-0.75
2018-11-21T15:40:21.605Z,-0.80
2018-11-21T15:42:50.218Z,-0.83
2018-11-21T15:45:19.431Z,-0.92
2018-11-21T15:47:51.183Z,-0.88
2018-11-21T15:50:20.192Z,-0.88
2018-11-21T15:52:52.689Z,-0.92
2018-11-21T15:55:17.881Z,-0.96
2018-11-21T15:57:46.071Z,-0.90
2018-11-21T16:00:34.791Z,-0.86
2018-11-21T16:03:06.276Z,-0.88
2018-11-21T16:05:34.342Z,-0.93
2018-11-21T16:08:03.572Z,-0.95
2018-11-21T16:10:49.997Z,-0.89
2018-11-21T16:13:18.522Z,-0.85
2018-11-21T16:15:50.953Z,-0.84
2018-11-21T16:18:19.907Z,-0.79
2018-11-21T16:20:47.807Z,-0.85
2018-11-21T16:23:15.542Z,-0.86
2018-11-21T16:25:44.118Z,-0.78
2018-11-21T16:28:12.307Z,-0.81
2018-11-21T16:30:40.392Z,-0.78
2018-11-21T16:33:08.568Z,-0.81
2018-11-21T16:35:36.833Z,-0.77
2018-11-21T16:38:05.643Z,-0.79
2018-11-21T16:40:34.197Z,-0.88
2018-11-21T16:43:01.897Z,-0.84
2018-11-21T16:45:31.812Z,-0.89
2018-11-21T16:47:59.426Z,-0.83
2018-11-21T16:50:27.547Z,-0.84
2018-11-21T16:52:55.702Z,-0.82
2018-11-21T16:55:25.421Z,-0.90
2018-11-21T16:57:54.537Z,-0.94
2018-11-21T17:00:23.712Z,-0.89
2018-11-21T17:02:51.932Z,-0.95
2018-11-21T17:05:21.473Z,-0.95
2018-11-21T17:07:48.708Z,-1.01
2018-11-21T17:10:17.703Z,-0.91
2018-11-21T17:12:46.733Z,-0.92
2018-11-21T17:15:16.373Z,-0.92
2018-11-21T17:18:03.515Z,-0.98
2018-11-21T17:20:50.714Z,-1.00
2018-11-21T17:23:18.948Z,-1.10
2018-11-21T17:25:47.218Z,-1.20
2018-11-21T17:28:15.689Z,-1.14
2018-11-21T17:30:44.387Z,-1.12
2018-11-21T17:33:12.868Z,-1.05
2018-11-21T17:35:41.354Z,-1.06
2018-11-21T17:38:09.538Z,-1.11
2018-11-21T17:40:38.949Z,-1.15
2018-11-21T17:43:07.530Z,-1.20
2018-11-21T17:45:35.604Z,-1.17
2018-11-21T17:48:04.299Z,-1.15
2018-11-21T17:50:32.171Z,-1.12
2018-11-21T17:53:01.482Z,-1.14
2018-11-21T17:55:30.866Z,-1.21
2018-11-21T17:57:59.079Z,-1.29
2018-11-21T18:00:29.005Z,-1.36
2018-11-21T18:02:57.069Z,-1.36
2018-11-21T18:05:44.401Z,-1.33
2018-11-21T18:08:12.862Z,-1.29
2018-11-21T18:10:41.938Z,-1.30
2018-11-21T18:13:10.302Z,-1.34
2018-11-21T18:15:38.548Z,-1.33
2018-11-21T18:18:07.243Z,-1.38
2018-11-21T18:20:35.848Z,-1.41
2018-11-21T18:23:04.091Z,-1.44
2018-11-21T18:25:34.138Z,-1.43
2018-11-21T18:28:02.742Z,-1.44
2018-11-21T18:30:30.878Z,-1.37
2018-11-21T18:32:59.155Z,-1.46
2018-11-21T18:35:27.333Z,-1.45
2018-11-21T18:37:55.771Z,-1.48
2018-11-21T18:40:25.235Z,-1.49
2018-11-21T18:42:53.930Z,-1.50
2018-11-21T18:45:23.648Z,-1.50
2018-11-21T18:47:52.199Z,-1.46
2018-11-21T18:50:21.030Z,-1.39
2018-11-21T18:52:50.327Z,-1.38
2018-11-21T18:55:21.341Z,-1.33
2018-11-21T18:58:27.925Z,-1.32
2018-11-21T19:00:56.311Z,-1.29
2018-11-21T19:03:24.310Z,-1.31
2018-11-21T19:06:11.549Z,-1.25
2018-11-21T19:08:40.031Z,-1.27
2018-11-21T19:11:08.674Z,-1.30
2018-11-21T19:13:37.180Z,-1.37
2018-11-21T19:16:05.727Z,-1.30
2018-11-21T19:18:33.547Z,-1.24
2018-11-21T19:21:01.954Z,-1.25
2018-11-21T19:23:29.591Z,-1.30
2018-11-21T19:25:57.782Z,-1.26
2018-11-21T19:28:25.547Z,-1.23
2018-11-21T19:30:53.713Z,-1.16
2018-11-21T19:33:28.343Z,-1.33
2018-11-21T19:35:56.117Z,-1.36
2018-11-21T19:38:24.311Z,-1.41
2018-11-21T19:40:52.780Z,-1.28
2018-11-21T19:43:21.233Z,-1.28
2018-11-21T19:45:49.459Z,-1.20
2018-11-21T19:48:18.024Z,-1.29
2018-11-21T19:50:45.841Z,-1.33
2018-11-21T19:53:14.109Z,-1.38
2018-11-21T19:55:42.268Z,-1.39
2018-11-21T19:58:10.432Z,-1.36
2018-11-21T20:00:38.643Z,-1.34
2018-11-21T20:03:07.437Z,-1.30
2018-11-21T20:05:35.695Z,-1.33
2018-11-21T20:08:03.885Z,-1.32
2018-11-21T20:10:31.655Z,-1.41
2018-11-21T20:13:00.134Z,-1.41
2018-11-21T20:15:28.435Z,-1.35
2018-11-21T20:18:00.080Z,-1.39
2018-11-21T20:20:27.922Z,-1.36
2018-11-21T20:22:56.024Z,-1.43
2018-11-21T20:25:24.627Z,-1.41
2018-11-21T20:27:53.038Z,-1.45
2018-11-21T20:30:40.284Z,-1.40
2018-11-21T20:33:08.868Z,-1.44
2018-11-21T20:35:37.796Z,-1.28
2018-11-21T20:38:06.202Z,-1.28
2018-11-21T20:40:53.313Z,-1.27
2018-11-21T20:43:20.658Z,-1.23
2018-11-21T20:45:49.185Z,-1.23
2018-11-21T20:48:17.047Z,-1.27
2018-11-21T20:50:45.617Z,-1.29
2018-11-21T20:53:13.724Z,-1.35
2018-11-21T20:55:42.092Z,-1.37
2018-11-21T20:58:10.245Z,-1.44
2018-11-21T21:00:38.028Z,-1.24
2018-11-21T21:05:33.969Z,-1.20
2018-11-21T21:08:02.039Z,-1.16
2018-11-21T21:10:31.931Z,-1.20
2018-11-21T21:13:00.291Z,-1.08
2018-11-21T21:15:28.753Z,-0.93
2018-11-21T21:17:57.443Z,-0.84
2018-11-21T21:20:26.604Z,-0.79
2018-11-21T21:22:56.134Z,-0.87
2018-11-21T21:25:25.792Z,-0.91
2018-11-21T21:27:54.398Z,-1.02
2018-11-21T21:30:41.597Z,-1.11
2018-11-21T21:33:10.058Z,-1.14
2018-11-21T21:35:38.547Z,-1.13
2018-11-21T21:38:06.727Z,-1.07
2018-11-21T21:40:34.980Z,-1.11
2018-11-21T21:43:03.099Z,-1.22
2018-11-21T21:45:31.547Z,-1.25
2018-11-21T21:47:59.741Z,-1.21
2018-11-21T21:50:29.445Z,-1.19
2018-11-21T21:52:57.440Z,-1.14
2018-11-21T21:55:26.529Z,-1.27
2018-11-21T21:57:54.514Z,-1.23
2018-11-21T22:00:23.869Z,-1.22
2018-11-21T22:02:52.623Z,-1.18
2018-11-21T22:05:20.518Z,-1.13
2018-11-21T22:07:48.265Z,-1.11
2018-11-21T22:10:17.747Z,-0.99
2018-11-21T22:12:46.342Z,-1.05
2018-11-21T22:15:33.930Z,-1.02
2018-11-21T22:18:04.279Z,-1.10
2018-11-21T22:20:32.753Z,-1.06
2018-11-21T22:23:01.174Z,-1.19
2018-11-21T22:25:29.454Z,-1.28
2018-11-21T22:27:57.434Z,-1.38
2018-11-21T22:30:24.883Z,-1.36
2018-11-21T22:32:53.592Z,-1.27
2018-11-21T22:35:25.022Z,-1.28
2018-11-21T22:37:51.455Z,-1.22
2018-11-21T22:40:19.374Z,-1.26
2018-11-21T22:42:47.519Z,-1.27
2018-11-21T22:45:19.289Z,-1.25
2018-11-21T22:47:47.035Z,-1.26
2018-11-21T22:50:33.529Z,-1.44
2018-11-21T22:53:01.118Z,-1.48
2018-11-21T22:55:29.189Z,-1.48
2018-11-21T22:57:57.660Z,-1.44
2018-11-21T23:00:44.896Z,-1.47
2018-11-21T23:03:14.380Z,-1.45
2018-11-21T23:05:42.472Z,-1.51
2018-11-21T23:08:09.874Z,-1.45
2018-11-21T23:10:37.871Z,-1.52
2018-11-21T23:13:05.301Z,-1.47
2018-11-21T23:15:33.763Z,-1.45
2018-11-21T23:18:01.866Z,-1.47
2018-11-21T23:20:30.023Z,-1.49
2018-11-21T23:22:57.394Z,-1.55
2018-11-21T23:25:25.435Z,-1.42
2018-11-21T23:27:53.454Z,-1.38
2018-11-21T23:30:21.940Z,-1.45
2018-11-21T23:32:49.645Z,-1.45
2018-11-21T23:35:18.189Z,-1.36
2018-11-21T23:37:46.382Z,-1.46
2018-11-21T23:40:15.699Z,-1.45
2018-11-21T23:43:02.797Z,-1.43
2018-11-21T23:45:30.779Z,-1.46
2018-11-21T23:47:58.930Z,-1.38
2018-11-21T23:50:27.059Z,-1.18
2018-11-21T23:52:54.484Z,-1.17
2018-11-21T23:55:22.146Z,-1.21
2018-11-21T23:57:50.349Z,-1.24
